createdAt,value
2022-11-20T00:01:29.592Z,-0.70
2022-11-20T00:03:58.831Z,-0.60
2022-11-20T00:06:28.155Z,-0.70
2022-11-20T00:09:01.187Z,-0.60
2022-11-20T00:11:31.038Z,-0.50
2022-11-20T00:14:01.699Z,-0.40
2022-11-20T00:16:32.398Z,-0.60
2022-11-20T00:18:59.266Z,-0.60
2022-11-20T00:21:28.868Z,-0.60
2022-11-20T00:23:58.114Z,-0.60
2022-11-20T00:26:27.577Z,-0.60
2022-11-20T00:28:58.070Z,-0.50
2022-11-20T00:31:25.394Z,-0.50
2022-11-20T00:33:52.969Z,-0.50
2022-11-20T00:36:23.442Z,-0.50
2022-11-20T00:38:55.593Z,-0.50
2022-11-20T00:41:23.924Z,-0.40
2022-11-20T00:43:52.646Z,-0.40
2022-11-20T00:46:23.176Z,-0.40
2022-11-20T00:48:50.547Z,-0.50
2022-11-20T00:51:22.043Z,-0.50
2022-11-20T00:53:49.451Z,-0.40
2022-11-20T00:56:19.261Z,-0.50
2022-11-20T00:58:49.253Z,-0.50
2022-11-20T01:01:25.149Z,-0.30
2022-11-20T01:03:56.135Z,-0.50
2022-11-20T01:06:33.561Z,-0.50
2022-11-20T01:09:05.203Z,-0.50
2022-11-20T01:11:36.841Z,-0.40
2022-11-20T01:14:10.232Z,-0.30
2022-11-20T01:16:41.756Z,-0.30
2022-11-20T01:19:17.541Z,-0.40
2022-11-20T01:21:47.175Z,-0.40
2022-11-20T01:24:18.079Z,-0.30
2022-11-20T01:26:47.729Z,-0.30
2022-11-20T01:29:20.283Z,-0.30
2022-11-20T01:31:47.353Z,-0.20
2022-11-20T01:34:18.394Z,-0.20
2022-11-20T01:36:46.282Z,-0.20
2022-11-20T01:39:17.904Z,-0.10
2022-11-20T01:42:09.415Z,-0.20
2022-11-20T01:44:59.115Z,-0.20
2022-11-20T01:47:45.989Z,-0.20
2022-11-20T01:50:25.653Z,-0.20
2022-11-20T01:53:01.646Z,-0.20
2022-11-20T01:55:39.046Z,-0.20
2022-11-20T01:58:06.929Z,-0.20
2022-11-20T02:00:33.893Z,-0.20
2022-11-20T02:03:21.433Z,-0.20
2022-11-20T02:06:18.158Z,-0.20
2022-11-20T02:08:45.156Z,-0.30
2022-11-20T02:11:13.697Z,-0.30
2022-11-20T02:13:44.045Z,-0.20
2022-11-20T02:16:36.159Z,-0.20
2022-11-20T02:19:10.815Z,-0.20
2022-11-20T02:21:55.496Z,-0.20
2022-11-20T02:24:23.870Z,-0.20
2022-11-20T02:26:58.079Z,-0.20
2022-11-20T02:29:32.082Z,-0.20
2022-11-20T02:32:01.632Z,-0.20
2022-11-20T02:34:28.555Z,-0.30
2022-11-20T02:36:57.472Z,-0.30
2022-11-20T02:39:28.670Z,-0.20
2022-11-20T02:41:58.087Z,-0.20
2022-11-20T02:44:25.067Z,-0.20
2022-11-20T02:46:51.875Z,-0.20
2022-11-20T02:49:18.767Z,-0.20
2022-11-20T02:51:45.890Z,-0.10
2022-11-20T02:54:12.728Z,-0.10
2022-11-20T02:56:40.369Z,-0.10
2022-11-20T02:59:08.131Z,0.00
2022-11-20T03:01:35.119Z,-0.10
2022-11-20T03:04:02.094Z,0.00
2022-11-20T03:06:29.117Z,0.00
2022-11-20T03:08:56.015Z,0.00
2022-11-20T03:11:22.878Z,0.10
2022-11-20T03:13:49.672Z,0.10
2022-11-20T03:16:22.591Z,0.00
2022-11-20T03:18:50.691Z,0.10
2022-11-20T03:21:17.650Z,0.10
2022-11-20T03:23:44.620Z,0.10
2022-11-20T03:26:20.989Z,0.10
2022-11-20T03:29:05.224Z,0.10
2022-11-20T03:31:41.211Z,0.20
2022-11-20T03:34:11.085Z,0.20
2022-11-20T03:36:44.466Z,0.20
2022-11-20T03:39:11.369Z,0.20
2022-11-20T03:41:41.783Z,0.30
2022-11-20T03:44:11.191Z,0.30
2022-11-20T03:46:38.760Z,0.30
2022-11-20T03:49:06.312Z,0.40
2022-11-20T03:51:36.735Z,0.30
2022-11-20T03:54:08.018Z,0.20
2022-11-20T03:56:38.671Z,0.20
2022-11-20T03:59:06.440Z,0.10
2022-11-20T04:01:36.411Z,0.10
2022-11-20T04:04:03.740Z,0.10
2022-11-20T04:06:37.718Z,0.00
2022-11-20T04:09:05.273Z,0.00
2022-11-20T04:11:37.588Z,-0.10
2022-11-20T04:14:15.142Z,-0.10
2022-11-20T04:16:42.817Z,-0.10
2022-11-20T04:19:17.392Z,-0.20
2022-11-20T04:21:45.483Z,-0.20
2022-11-20T04:24:12.572Z,-0.10
2022-11-20T04:26:40.160Z,-0.10
2022-11-20T04:29:07.323Z,-0.10
2022-11-20T04:31:35.684Z,-0.10
2022-11-20T04:34:05.766Z,-0.10
2022-11-20T04:36:33.672Z,-0.20
2022-11-20T04:39:04.741Z,-0.10
2022-11-20T04:41:35.547Z,-0.10
2022-11-20T04:44:05.135Z,-0.10
2022-11-20T04:46:38.761Z,-0.10
2022-11-20T04:49:06.458Z,-0.10
2022-11-20T04:51:34.525Z,-0.10
2022-11-20T04:54:02.311Z,-0.10
2022-11-20T04:56:29.336Z,-0.10
2022-11-20T04:58:56.118Z,0.20
2022-11-20T05:01:25.381Z,-0.10
2022-11-20T05:03:52.896Z,0.00
2022-11-20T05:06:22.128Z,0.00
2022-11-20T05:08:49.147Z,0.00
2022-11-20T05:11:22.046Z,0.00
2022-11-20T05:13:50.446Z,0.00
2022-11-20T05:16:23.368Z,0.00
2022-11-20T05:18:52.324Z,0.10
2022-11-20T05:21:19.960Z,0.10
2022-11-20T05:23:47.673Z,0.10
2022-11-20T05:26:19.430Z,0.20
2022-11-20T05:28:47.932Z,0.20
2022-11-20T05:31:26.676Z,0.20
2022-11-20T05:33:57.014Z,0.20
2022-11-20T05:36:24.426Z,0.20
2022-11-20T05:38:52.385Z,0.20
2022-11-20T05:41:22.004Z,0.20
2022-11-20T05:43:50.677Z,0.20
2022-11-20T05:46:27.869Z,0.20
2022-11-20T05:48:57.575Z,0.40
2022-11-20T05:51:25.330Z,0.20
2022-11-20T05:53:52.097Z,0.20
2022-11-20T05:56:22.153Z,0.20
2022-11-20T05:58:50.025Z,0.30
2022-11-20T06:01:21.846Z,0.20
2022-11-20T06:03:50.356Z,0.20
2022-11-20T06:06:18.734Z,0.20
2022-11-20T06:08:46.771Z,0.20
2022-11-20T06:11:16.198Z,0.30
2022-11-20T06:13:43.655Z,0.30
2022-11-20T06:16:12.588Z,0.30
2022-11-20T06:18:40.192Z,0.40
2022-11-20T06:21:09.620Z,0.40
2022-11-20T06:23:37.352Z,0.50
2022-11-20T06:26:14.829Z,0.50
2022-11-20T06:28:42.140Z,0.50
2022-11-20T06:31:12.507Z,0.40
2022-11-20T06:33:39.375Z,0.70
2022-11-20T06:36:10.691Z,0.60
2022-11-20T06:38:39.414Z,0.60
2022-11-20T06:41:18.016Z,0.80
2022-11-20T06:43:45.161Z,0.70
2022-11-20T06:46:14.428Z,0.70
2022-11-20T06:48:41.741Z,0.70
2022-11-20T06:51:09.416Z,0.70
2022-11-20T06:53:37.884Z,0.70
2022-11-20T06:56:06.050Z,0.80
2022-11-20T06:58:34.935Z,0.70
2022-11-20T07:01:11.220Z,0.80
2022-11-20T07:03:38.958Z,0.80
2022-11-20T07:06:06.516Z,0.80
2022-11-20T07:08:34.199Z,0.90
2022-11-20T07:11:07.764Z,0.80
2022-11-20T07:13:35.432Z,1.00
2022-11-20T07:16:07.763Z,0.90
2022-11-20T07:18:35.159Z,0.90
2022-11-20T07:21:08.877Z,0.90
2022-11-20T07:23:36.107Z,1.00
2022-11-20T07:26:08.546Z,1.00
2022-11-20T07:28:36.715Z,1.00
2022-11-20T07:31:06.026Z,1.10
2022-11-20T07:33:33.275Z,1.10
2022-11-20T07:36:01.088Z,1.00
2022-11-20T07:38:27.952Z,1.10
2022-11-20T07:40:57.139Z,1.10
2022-11-20T07:43:24.926Z,1.10
2022-11-20T07:45:51.892Z,1.10
2022-11-20T07:48:18.679Z,1.10
2022-11-20T07:50:46.866Z,1.10
2022-11-20T07:53:14.852Z,1.10
2022-11-20T07:55:41.854Z,1.10
2022-11-20T07:58:08.743Z,1.10
2022-11-20T08:00:36.431Z,1.10
2022-11-20T08:03:07.002Z,1.20
2022-11-20T08:05:34.684Z,1.20
2022-11-20T08:08:02.387Z,1.20
2022-11-20T08:10:29.297Z,1.30
2022-11-20T08:13:14.518Z,1.30
2022-11-20T08:15:41.839Z,1.40
2022-11-20T08:18:30.592Z,1.40
2022-11-20T08:21:02.950Z,1.40
2022-11-20T08:23:29.789Z,1.60
2022-11-20T08:25:56.703Z,1.50
2022-11-20T08:28:23.847Z,1.60
2022-11-20T08:30:51.684Z,1.60
2022-11-20T08:33:19.576Z,1.60
2022-11-20T08:35:46.926Z,1.70
2022-11-20T08:38:13.890Z,1.80
2022-11-20T08:40:40.857Z,1.90
2022-11-20T08:43:07.860Z,1.90
2022-11-20T08:45:35.543Z,1.90
2022-11-20T08:48:04.311Z,2.00
2022-11-20T08:50:33.144Z,2.10
2022-11-20T08:53:05.764Z,2.20
2022-11-20T08:55:33.282Z,2.30
2022-11-20T08:58:05.390Z,2.20
2022-11-20T09:00:33.630Z,2.20
2022-11-20T09:03:02.290Z,2.20
2022-11-20T09:05:33.598Z,2.20
2022-11-20T09:08:01.257Z,2.30
2022-11-20T09:10:28.963Z,2.40
2022-11-20T09:12:56.567Z,2.70
2022-11-20T09:15:26.256Z,3.00
2022-11-20T09:17:54.600Z,3.30
2022-11-20T09:20:22.018Z,3.50
2022-11-20T09:22:49.878Z,3.60
2022-11-20T09:25:17.934Z,3.80
2022-11-20T09:27:46.763Z,3.90
2022-11-20T09:30:15.658Z,3.90
2022-11-20T09:32:43.793Z,3.90
2022-11-20T09:35:11.747Z,3.90
2022-11-20T09:37:39.107Z,3.60
2022-11-20T09:40:06.764Z,3.50
2022-11-20T09:43:16.151Z,3.40
2022-11-20T09:46:35.969Z,3.30
2022-11-20T09:49:43.436Z,3.40
2022-11-20T09:52:45.171Z,3.40
2022-11-20T09:55:16.117Z,3.50
2022-11-20T09:57:48.995Z,3.60
2022-11-20T10:00:17.503Z,3.70
2022-11-20T10:02:54.890Z,3.70
2022-11-20T10:05:38.699Z,3.70
2022-11-20T10:08:17.555Z,3.80
2022-11-20T10:11:14.589Z,3.80
2022-11-20T10:14:12.565Z,3.80
2022-11-20T10:17:12.274Z,3.80
2022-11-20T10:19:48.437Z,3.70
2022-11-20T10:22:56.048Z,3.60
2022-11-20T10:25:38.414Z,3.60
2022-11-20T10:28:29.676Z,3.70
2022-11-20T10:31:08.992Z,3.70
2022-11-20T10:34:10.651Z,3.60
2022-11-20T10:37:06.706Z,3.70
2022-11-20T10:40:08.935Z,3.80
2022-11-20T10:43:34.958Z,3.90
2022-11-20T10:46:20.899Z,4.00
2022-11-20T10:48:48.882Z,4.10
2022-11-20T10:52:12.211Z,4.20
2022-11-20T10:55:12.921Z,4.30
2022-11-20T10:58:16.360Z,4.40
2022-11-20T11:00:43.369Z,4.40
2022-11-20T11:03:29.573Z,4.40
2022-11-20T11:06:09.444Z,4.30
2022-11-20T11:08:40.601Z,4.20
2022-11-20T11:11:29.285Z,4.10
2022-11-20T11:14:14.772Z,4.00
2022-11-20T11:16:57.923Z,4.00
2022-11-20T11:19:25.705Z,4.00
2022-11-20T11:21:57.788Z,4.00
2022-11-20T11:24:46.013Z,4.00
2022-11-20T11:27:18.776Z,4.10
2022-11-20T11:29:47.246Z,4.00
2022-11-20T11:32:23.067Z,4.00
2022-11-20T11:35:19.532Z,4.00
2022-11-20T11:37:48.868Z,4.10
2022-11-20T11:40:25.987Z,4.10
2022-11-20T11:43:28.105Z,4.00
2022-11-20T11:45:56.948Z,4.00
2022-11-20T11:48:23.710Z,4.00
2022-11-20T11:50:52.851Z,3.90
2022-11-20T11:53:24.204Z,3.90
2022-11-20T11:56:10.768Z,3.80
2022-11-20T11:58:53.293Z,3.90
2022-11-20T12:01:50.221Z,4.00
2022-11-20T12:04:43.063Z,4.00
2022-11-20T12:07:46.989Z,4.10
2022-11-20T12:10:42.302Z,4.00
2022-11-20T12:13:35.725Z,4.00
2022-11-20T12:16:05.551Z,3.90
2022-11-20T12:18:32.837Z,3.90
2022-11-20T12:21:34.607Z,3.90
2022-11-20T12:24:19.429Z,3.80
2022-11-20T12:26:57.107Z,3.70
2022-11-20T12:29:57.273Z,3.70
2022-11-20T12:33:10.550Z,3.60
2022-11-20T12:35:54.160Z,3.60
2022-11-20T12:39:22.032Z,3.50
2022-11-20T12:42:44.851Z,3.40
2022-11-20T12:45:47.009Z,3.50
2022-11-20T12:48:43.534Z,3.50
2022-11-20T12:51:44.950Z,3.40
2022-11-20T12:54:44.719Z,3.40
2022-11-20T12:57:24.635Z,3.50
2022-11-20T13:00:14.811Z,3.40
2022-11-20T13:02:55.316Z,3.40
2022-11-20T13:05:46.419Z,3.30
2022-11-20T13:08:25.088Z,3.30
2022-11-20T13:11:26.603Z,3.30
2022-11-20T13:14:20.835Z,3.30
2022-11-20T13:17:34.150Z,3.30
2022-11-20T13:20:01.247Z,3.30
2022-11-20T13:22:58.807Z,3.30
2022-11-20T13:25:38.336Z,3.30
2022-11-20T13:28:26.269Z,3.30
2022-11-20T13:30:56.556Z,3.30
2022-11-20T13:33:39.078Z,3.20
2022-11-20T13:36:26.933Z,3.30
2022-11-20T13:38:57.003Z,3.30
2022-11-20T13:41:40.358Z,3.20
2022-11-20T13:44:26.316Z,3.20
2022-11-20T13:46:53.225Z,3.20
2022-11-20T13:49:42.504Z,3.20
2022-11-20T13:52:45.575Z,3.00
2022-11-20T13:55:36.173Z,2.90
2022-11-20T13:58:20.567Z,2.90
2022-11-20T14:01:08.955Z,2.90
2022-11-20T14:06:30.416Z,2.90
2022-11-20T14:09:00.330Z,2.90
2022-11-20T14:11:30.716Z,2.90
2022-11-20T14:14:17.439Z,2.90
2022-11-20T14:16:45.290Z,2.90
2022-11-20T14:19:21.082Z,2.90
2022-11-20T14:21:50.826Z,2.90
2022-11-20T14:24:24.436Z,2.90
2022-11-20T14:26:52.859Z,2.90
2022-11-20T14:29:37.453Z,2.90
2022-11-20T14:32:06.075Z,3.00
2022-11-20T14:34:41.623Z,3.00
2022-11-20T14:37:17.035Z,3.00
2022-11-20T14:39:54.614Z,3.00
2022-11-20T14:42:28.693Z,3.10
2022-11-20T14:45:02.073Z,3.00
2022-11-20T14:47:33.185Z,3.10
2022-11-20T14:50:07.187Z,3.10
2022-11-20T14:52:37.275Z,3.00
2022-11-20T14:55:05.197Z,3.00
2022-11-20T14:57:36.639Z,3.00
2022-11-20T15:00:12.927Z,3.00
2022-11-20T15:02:49.229Z,3.00
2022-11-20T15:05:19.639Z,3.00
2022-11-20T15:08:05.631Z,3.00
2022-11-20T15:10:33.296Z,3.10
2022-11-20T15:13:13.101Z,3.00
2022-11-20T15:15:50.894Z,3.00
2022-11-20T15:18:40.637Z,3.20
2022-11-20T15:21:23.814Z,3.00
2022-11-20T15:23:51.021Z,3.00
2022-11-20T15:26:29.024Z,3.00
2022-11-20T15:28:56.073Z,3.10
2022-11-20T15:31:24.969Z,3.00
2022-11-20T15:33:52.232Z,3.00
2022-11-20T15:36:19.170Z,2.90
2022-11-20T15:38:45.938Z,2.90
2022-11-20T15:41:12.820Z,2.90
2022-11-20T15:43:39.615Z,2.90
2022-11-20T15:46:12.214Z,2.80
2022-11-20T15:48:53.033Z,2.90
2022-11-20T15:51:37.993Z,2.90
2022-11-20T15:54:25.319Z,2.80
2022-11-20T15:56:55.492Z,2.80
2022-11-20T15:59:22.508Z,2.80
2022-11-20T16:01:49.390Z,2.80
2022-11-20T16:04:18.003Z,2.90
2022-11-20T16:06:44.987Z,2.80
2022-11-20T16:09:11.829Z,2.90
2022-11-20T16:11:39.065Z,2.80
2022-11-20T16:14:25.907Z,2.80
2022-11-20T16:16:53.020Z,2.80
2022-11-20T16:19:19.958Z,2.80
2022-11-20T16:21:46.860Z,2.90
2022-11-20T16:24:15.066Z,2.90
2022-11-20T16:26:42.787Z,2.90
2022-11-20T16:29:10.974Z,2.90
2022-11-20T16:31:38.458Z,2.80
2022-11-20T16:34:12.353Z,2.80
2022-11-20T16:36:46.001Z,2.80
2022-11-20T16:39:16.718Z,2.80
2022-11-20T16:41:46.667Z,2.90
2022-11-20T16:44:15.415Z,2.90
2022-11-20T16:46:42.881Z,2.90
2022-11-20T16:49:14.901Z,3.00
2022-11-20T16:51:43.047Z,3.00
2022-11-20T16:54:16.508Z,3.10
2022-11-20T16:56:48.456Z,3.10
2022-11-20T16:59:15.908Z,3.20
2022-11-20T17:01:44.442Z,3.30
2022-11-20T17:04:11.931Z,3.40
2022-11-20T17:06:44.528Z,3.40
2022-11-20T17:09:11.941Z,3.40
2022-11-20T17:11:39.818Z,3.50
2022-11-20T17:14:07.860Z,3.50
2022-11-20T17:16:36.596Z,3.50
2022-11-20T17:19:05.176Z,3.60
2022-11-20T17:21:36.081Z,3.60
2022-11-20T17:24:06.425Z,3.70
2022-11-20T17:26:35.016Z,3.60
2022-11-20T17:29:03.282Z,3.60
2022-11-20T17:31:33.709Z,3.60
2022-11-20T17:34:01.830Z,3.70
2022-11-20T17:36:30.436Z,3.70
2022-11-20T17:38:58.235Z,3.70
2022-11-20T17:41:28.706Z,3.70
2022-11-20T17:43:59.336Z,3.70
2022-11-20T17:46:30.492Z,3.70
2022-11-20T17:48:57.254Z,3.60
2022-11-20T17:51:30.932Z,3.60
2022-11-20T17:54:01.668Z,3.60
2022-11-20T17:56:54.458Z,3.60
2022-11-20T17:59:21.858Z,3.60
2022-11-20T18:01:49.255Z,3.60
2022-11-20T18:04:16.955Z,3.60
2022-11-20T18:06:44.312Z,3.60
2022-11-20T18:09:11.554Z,3.50
2022-11-20T18:11:41.131Z,3.50
2022-11-20T18:14:51.605Z,3.50
2022-11-20T18:17:18.326Z,3.50
2022-11-20T18:20:13.735Z,3.50
2022-11-20T18:22:34.523Z,3.50
2022-11-20T18:25:01.376Z,3.50
2022-11-20T18:27:28.069Z,3.50
2022-11-20T18:29:55.013Z,3.60
2022-11-20T18:32:22.742Z,3.60
2022-11-20T18:34:51.214Z,3.60
2022-11-20T18:37:19.436Z,3.70
2022-11-20T18:39:46.394Z,3.70
2022-11-20T18:42:34.503Z,3.70
2022-11-20T18:45:04.266Z,3.70
2022-11-20T18:47:37.504Z,3.70
2022-11-20T18:50:07.481Z,3.70
2022-11-20T18:52:41.730Z,3.70
2022-11-20T18:55:10.084Z,3.70
2022-11-20T18:57:36.889Z,3.70
2022-11-20T19:00:09.397Z,3.80
2022-11-20T19:02:41.598Z,3.80
2022-11-20T19:05:14.585Z,3.80
2022-11-20T19:07:42.921Z,3.80
2022-11-20T19:10:10.097Z,3.90
2022-11-20T19:12:37.068Z,3.90
2022-11-20T19:15:04.605Z,3.90
2022-11-20T19:17:34.057Z,4.00
2022-11-20T19:20:01.058Z,4.00
2022-11-20T19:22:27.875Z,4.00
2022-11-20T19:24:54.737Z,4.00
2022-11-20T19:27:21.520Z,4.10
2022-11-20T19:29:48.263Z,4.10
2022-11-20T19:32:16.249Z,4.20
2022-11-20T19:34:43.610Z,4.20
2022-11-20T19:37:10.388Z,4.20
2022-11-20T19:39:37.392Z,4.30
2022-11-20T19:42:04.235Z,4.30
2022-11-20T19:44:32.835Z,4.30
2022-11-20T19:46:59.737Z,4.40
2022-11-20T19:49:26.731Z,4.40
2022-11-20T19:51:53.698Z,4.50
2022-11-20T19:54:20.492Z,4.50
2022-11-20T19:56:49.323Z,4.50
2022-11-20T19:59:16.362Z,4.60
2022-11-20T20:01:43.518Z,4.60
2022-11-20T20:04:10.362Z,4.70
2022-11-20T20:06:38.959Z,4.70
2022-11-20T20:09:12.638Z,4.70
2022-11-20T20:11:40.662Z,4.70
2022-11-20T20:14:15.660Z,4.80
2022-11-20T20:16:43.190Z,4.80
2022-11-20T20:19:15.967Z,4.90
2022-11-20T20:21:44.005Z,4.90
2022-11-20T20:24:11.948Z,5.20
2022-11-20T20:26:38.963Z,5.00
2022-11-20T20:29:05.745Z,5.20
2022-11-20T20:31:34.195Z,5.20
2022-11-20T20:34:03.278Z,5.30
2022-11-20T20:36:30.121Z,5.30
2022-11-20T20:39:04.972Z,5.30
2022-11-20T20:41:32.186Z,5.40
2022-11-20T20:44:17.888Z,5.40
2022-11-20T20:46:44.662Z,5.40
2022-11-20T20:49:11.763Z,5.40
2022-11-20T20:51:38.862Z,5.40
2022-11-20T20:54:05.728Z,5.40
2022-11-20T20:56:32.666Z,5.30
2022-11-20T20:58:59.474Z,5.30
2022-11-20T21:01:28.833Z,5.30
2022-11-20T21:03:56.639Z,5.30
2022-11-20T21:06:24.198Z,5.30
2022-11-20T21:08:51.027Z,5.30
2022-11-20T21:11:20.355Z,5.30
2022-11-20T21:13:48.906Z,5.30
2022-11-20T21:16:18.396Z,5.40
2022-11-20T21:18:45.682Z,5.40
2022-11-20T21:21:33.231Z,5.40
2022-11-20T21:24:00.588Z,5.50
2022-11-20T21:26:27.513Z,5.50
2022-11-20T21:28:54.300Z,5.50
2022-11-20T21:31:24.899Z,5.60
2022-11-20T21:33:54.314Z,5.60
2022-11-20T21:36:24.745Z,5.60
2022-11-20T21:38:54.754Z,5.60
2022-11-20T21:41:23.704Z,5.60
2022-11-20T21:44:29.148Z,5.60
2022-11-20T21:46:45.807Z,5.70
2022-11-20T21:49:13.176Z,5.70
2022-11-20T21:51:40.265Z,5.70
2022-11-20T21:54:07.192Z,5.70
2022-11-20T21:56:33.962Z,5.70
2022-11-20T21:59:00.769Z,5.70
2022-11-20T22:01:30.348Z,5.70
2022-11-20T22:04:01.155Z,5.60
2022-11-20T22:06:33.184Z,5.70
2022-11-20T22:09:03.616Z,5.70
2022-11-20T22:11:30.928Z,5.70
2022-11-20T22:14:16.953Z,5.70
2022-11-20T22:16:43.869Z,5.70
2022-11-20T22:19:10.688Z,5.70
2022-11-20T22:21:40.518Z,5.70
2022-11-20T22:24:08.533Z,5.70
2022-11-20T22:26:40.246Z,5.70
2022-11-20T22:29:12.128Z,5.70
2022-11-20T22:31:39.023Z,5.70
2022-11-20T22:34:05.888Z,5.70
2022-11-20T22:36:32.735Z,5.60
2022-11-20T22:39:02.688Z,5.60
2022-11-20T22:41:30.322Z,5.60
2022-11-20T22:44:00.091Z,5.70
2022-11-20T22:46:30.761Z,5.60
2022-11-20T22:49:01.387Z,5.60
2022-11-20T22:51:36.021Z,5.60
2022-11-20T22:54:03.532Z,5.50
2022-11-20T22:56:31.383Z,5.60
2022-11-20T22:58:58.536Z,5.60
2022-11-20T23:01:35.200Z,5.60
2022-11-20T23:04:06.115Z,5.60
2022-11-20T23:06:36.492Z,5.60
2022-11-20T23:09:06.042Z,5.60
2022-11-20T23:11:33.523Z,5.60
2022-11-20T23:14:07.169Z,5.50
2022-11-20T23:16:35.634Z,5.60
2022-11-20T23:19:07.205Z,5.50
2022-11-20T23:21:37.471Z,5.50
2022-11-20T23:24:05.807Z,5.50
2022-11-20T23:26:54.942Z,5.50
2022-11-20T23:29:21.799Z,5.50
2022-11-20T23:31:48.611Z,5.50
2022-11-20T23:34:15.411Z,5.50
2022-11-20T23:36:42.270Z,5.50
2022-11-20T23:39:09.952Z,5.50
2022-11-20T23:41:36.722Z,5.50
2022-11-20T23:44:04.228Z,5.40
2022-11-20T23:46:30.946Z,5.40
2022-11-20T23:48:57.666Z,5.40
2022-11-20T23:51:24.721Z,5.40
2022-11-20T23:53:51.473Z,5.40
2022-11-20T23:56:18.529Z,5.40
2022-11-20T23:58:45.256Z,5.40
